Time;durP1;ratioP1;P1;durP2;ratioP2;P2;SDS_P1;SDS_P2;PMS_P1;PMS_P2;Temp;Humidity;BMP_temperature;BMP_pressure;BME280_temperature;BME280_humidity;BME280_pressure;Samples;Min_cycle;Max_cycle;Signal;HPM_P1;HPM_P2
2023/02/02 00:01:38;;;;;;;22.55;5.53;;;8.80;63.50;;;;;;5033276;28;20441;-73
2023/02/02 00:04:04;;;;;;;26.77;5.50;;;8.80;63.90;;;;;;5033336;28;20929;-72
2023/02/02 00:06:31;;;;;;;32.10;6.13;;;8.80;64.50;;;;;;5033670;28;20406;-73
2023/02/02 00:08:59;;;;;;;25.92;5.65;;;8.80;64.50;;;;;;5033408;28;20387;-73
2023/02/02 00:11:24;;;;;;;28.00;5.70;;;8.80;64.80;;;;;;5034095;28;20379;-72
2023/02/02 00:13:50;;;;;;;26.45;6.00;;;8.80;64.90;;;;;;5036619;28;20476;-71
2023/02/02 00:16:25;;;;;;;29.63;6.40;;;8.80;64.80;;;;;;5038564;28;20467;-73
2023/02/02 00:18:58;;;;;;;26.92;6.00;;;8.80;65.10;;;;;;5050863;28;20377;-72
2023/02/02 00:21:24;;;;;;;21.58;5.45;;;8.80;65.30;;;;;;5048097;28;20920;-75
2023/02/02 00:23:50;;;;;;;28.65;6.10;;;8.70;66.00;;;;;;5043102;28;20441;-73
2023/02/02 00:26:17;;;;;;;18.35;5.70;;;8.70;66.70;;;;;;5041159;28;20391;-73
2023/02/02 00:28:43;;;;;;;28.35;7.25;;;8.70;67.10;;;;;;5037805;28;20513;-72
2023/02/02 00:31:08;;;;;;;23.42;5.38;;;8.60;67.90;;;;;;5014629;28;20442;-74
2023/02/02 00:33:34;;;;;;;27.10;6.00;;;8.70;67.10;;;;;;5032445;28;20379;-73
2023/02/02 00:36:00;;;;;;;29.17;6.35;;;8.70;67.50;;;;;;5032121;28;20390;-72
2023/02/02 00:38:26;;;;;;;28.30;6.05;;;8.60;68.50;;;;;;5032307;28;20397;-73
2023/02/02 00:40:51;;;;;;;34.75;6.25;;;8.60;69.00;;;;;;5032704;28;20807;-73
2023/02/02 00:43:17;;;;;;;36.55;6.95;;;8.60;69.30;;;;;;5032571;28;20487;-72
2023/02/02 00:45:43;;;;;;;24.85;6.00;;;8.60;69.70;;;;;;5032446;28;20470;-72
2023/02/02 00:48:09;;;;;;;27.47;7.57;;;8.60;70.90;;;;;;5032515;28;20919;-73
2023/02/02 00:50:36;;;;;;;27.30;6.25;;;8.60;71.30;;;;;;5033080;28;20382;-73
2023/02/02 00:53:02;;;;;;;27.05;6.28;;;8.60;70.90;;;;;;5032313;28;20411;-72
2023/02/02 00:55:28;;;;;;;24.80;6.80;;;8.60;71.70;;;;;;5032328;28;20463;-72
2023/02/02 00:57:53;;;;;;;26.60;6.70;;;8.50;72.50;;;;;;5032336;28;20415;-72
2023/02/02 01:00:22;;;;;;;23.17;6.22;;;8.50;72.80;;;;;;5033612;28;20923;-73
2023/02/02 01:02:49;;;;;;;25.17;6.88;;;8.60;72.60;;;;;;5033177;28;20406;-73
2023/02/02 01:05:15;;;;;;;31.53;6.50;;;8.50;73.20;;;;;;5035162;28;20395;-72
2023/02/02 01:07:41;;;;;;;29.90;6.60;;;8.50;73.90;;;;;;5035311;28;20890;-74
2023/02/02 01:10:09;;;;;;;28.60;6.20;;;8.50;74.20;;;;;;5033906;28;20498;-73
2023/02/02 01:12:35;;;;;;;31.65;6.80;;;8.50;74.10;;;;;;5036777;28;20394;-73
2023/02/02 01:15:01;;;;;;;23.20;6.50;;;8.50;73.90;;;;;;5034054;28;20391;-73
2023/02/02 01:17:27;;;;;;;26.70;6.53;;;8.60;74.00;;;;;;5032183;28;20418;-73
2023/02/02 01:19:53;;;;;;;26.52;6.90;;;8.60;73.70;;;;;;5014086;28;20434;-74
2023/02/02 01:22:18;;;;;;;30.67;6.20;;;8.60;73.90;;;;;;5032209;28;20999;-73
2023/02/02 01:24:44;;;;;;;27.27;5.67;;;8.60;72.90;;;;;;5033950;28;20391;-73
2023/02/02 01:27:09;;;;;;;24.90;6.00;;;8.60;73.30;;;;;;5035834;28;20780;-73
2023/02/02 01:29:35;;;;;;;22.10;6.30;;;8.50;73.50;;;;;;5035508;28;20383;-73
2023/02/02 01:32:01;;;;;;;25.67;6.00;;;8.60;73.30;;;;;;5034991;28;20386;-72
2023/02/02 01:34:26;;;;;;;21.60;6.20;;;8.70;72.70;;;;;;5034871;28;20387;-72
2023/02/02 01:36:52;;;;;;;22.97;5.80;;;8.60;72.30;;;;;;5034985;28;20390;-71
2023/02/02 01:39:18;;;;;;;30.80;6.80;;;8.70;72.20;;;;;;5016917;28;20391;-72
2023/02/02 01:41:43;;;;;;;26.08;6.32;;;8.70;72.80;;;;;;5034564;28;20477;-72
2023/02/02 01:44:46;;;;;;;27.85;6.38;;;8.70;73.20;;;;;;5034453;28;20430;-72
2023/02/02 01:47:13;;;;;;;31.20;6.20;;;8.70;73.20;;;;;;5034593;28;20390;-73
2023/02/02 01:49:40;;;;;;;24.23;6.15;;;8.60;74.10;;;;;;5034468;28;20751;-73
2023/02/02 01:52:06;;;;;;;23.30;6.00;;;8.60;74.60;;;;;;5034372;28;20394;-73
2023/02/02 01:54:40;;;;;;;27.48;6.88;;;8.70;74.00;;;;;;5035063;28;20434;-72
2023/02/02 01:57:12;;;;;;;23.33;6.30;;;8.70;74.00;;;;;;5034522;28;20752;-71
2023/02/02 01:59:38;;;;;;;36.15;7.13;;;8.70;74.30;;;;;;5034516;28;20776;-73
2023/02/02 02:02:03;;;;;;;38.80;5.75;;;8.70;73.50;;;;;;5034013;28;20403;-71
2023/02/02 02:04:31;;;;;;;23.80;5.77;;;8.80;72.80;;;;;;5034617;28;20390;-71
2023/02/02 02:06:58;;;;;;;26.63;6.13;;;8.70;73.80;;;;;;5034705;28;20402;-72
2023/02/02 02:09:23;;;;;;;24.38;6.03;;;8.70;73.80;;;;;;5034509;28;20386;-72
2023/02/02 02:11:52;;;;;;;25.50;6.75;;;8.70;73.40;;;;;;5034160;28;20383;-72
2023/02/02 02:17:36;;;;;;;23.60;6.00;;;8.70;73.70;;;;;;5034793;28;20506;-73
2023/02/02 02:26:33;;;;;;;21.23;5.90;;;8.80;73.60;;;;;;5035778;28;20375;-73
2023/02/02 02:29:35;;;;;;;24.75;5.78;;;8.80;73.70;;;;;;5034791;28;20378;-73
2023/02/02 02:32:28;;;;;;;24.70;5.80;;;8.80;74.70;;;;;;5035374;28;20446;-74
2023/02/02 02:34:57;;;;;;;22.77;5.28;;;8.70;75.50;;;;;;5033740;28;20887;-71
2023/02/02 02:37:32;;;;;;;27.10;5.90;;;8.70;76.50;;;;;;5034058;28;20541;-72
2023/02/02 02:40:33;;;;;;;22.83;5.18;;;8.60;77.20;;;;;;5033780;28;20381;-74
2023/02/02 02:43:05;;;;;;;30.05;6.10;;;8.60;77.60;;;;;;5033565;28;20403;-73
2023/02/02 02:45:32;;;;;;;28.10;6.85;;;8.60;79.00;;;;;;5033910;28;20379;-71
2023/02/02 02:47:58;;;;;;;22.15;6.70;;;8.60;79.70;;;;;;5034475;28;20445;-72
2023/02/02 02:50:23;;;;;;;24.02;5.55;;;8.60;80.60;;;;;;5039823;28;20375;-72
2023/02/02 02:53:03;;;;;;;27.98;6.15;;;8.50;80.50;;;;;;5053858;28;20395;-72
2023/02/02 02:55:39;;;;;;;28.77;6.60;;;8.50;82.50;;;;;;5037673;28;20417;-73
2023/02/02 02:58:15;;;;;;;28.13;5.90;;;8.40;84.20;;;;;;5033449;28;20396;-71
2023/02/02 03:01:04;;;;;;;21.90;5.90;;;8.40;83.50;;;;;;5033524;28;20418;-72
2023/02/02 03:03:56;;;;;;;29.60;7.20;;;8.40;85.40;;;;;;5033507;28;20501;-72
2023/02/02 03:06:39;;;;;;;23.45;6.07;;;8.40;84.70;;;;;;5033503;28;20555;-72
2023/02/02 03:09:12;;;;;;;25.05;5.90;;;8.40;83.50;;;;;;5015494;28;20375;-72
2023/02/02 03:11:38;;;;;;;27.15;5.70;;;8.40;83.70;;;;;;5033265;28;20427;-72
2023/02/02 03:14:06;;;;;;;27.33;6.70;;;8.40;84.50;;;;;;5033077;28;20859;-73
2023/02/02 03:16:31;;;;;;;29.60;6.60;;;8.40;83.50;;;;;;5033476;28;20455;-72
2023/02/02 03:18:57;;;;;;;18.60;5.50;;;8.30;83.80;;;;;;5032971;28;20383;-71
2023/02/02 03:21:23;;;;;;;31.30;6.83;;;8.30;85.30;;;;;;5033364;28;20954;-73
2023/02/02 03:23:48;;;;;;;29.20;5.97;;;8.30;85.50;;;;;;5032690;28;20409;-73
2023/02/02 03:26:14;;;;;;;28.30;7.20;;;8.40;84.20;;;;;;5032763;28;20509;-74
2023/02/02 03:28:40;;;;;;;33.53;6.30;;;8.40;83.30;;;;;;5032641;28;20760;-72
2023/02/02 03:31:06;;;;;;;26.02;6.07;;;8.40;83.60;;;;;;5032840;28;20395;-74
2023/02/02 03:33:35;;;;;;;33.00;6.60;;;8.40;82.60;;;;;;5032876;28;20476;-74
2023/02/02 03:36:01;;;;;;;28.10;7.18;;;8.40;83.00;;;;;;5033211;28;20393;-73
2023/02/02 03:38:26;;;;;;;31.53;6.50;;;8.40;83.30;;;;;;5033089;28;20787;-73
2023/02/02 03:40:52;;;;;;;25.20;6.20;;;8.40;83.00;;;;;;5033472;28;20492;-73
2023/02/02 03:43:22;;;;;;;30.92;6.63;;;8.40;83.40;;;;;;5033140;28;20406;-73
2023/02/02 03:45:54;;;;;;;23.70;6.90;;;8.40;83.70;;;;;;5034308;28;20960;-73
2023/02/02 03:48:19;;;;;;;27.53;6.50;;;8.30;86.00;;;;;;5002204;28;21097;-73
2023/02/02 03:50:44;;;;;;;30.83;7.07;;;8.30;86.90;;;;;;5036351;28;20387;-72
2023/02/02 03:53:10;;;;;;;32.53;6.40;;;8.30;87.50;;;;;;5035679;28;20428;-73
2023/02/02 03:55:37;;;;;;;32.03;7.00;;;8.30;88.40;;;;;;5016847;28;20395;-73
2023/02/02 03:58:03;;;;;;;27.70;6.55;;;8.20;91.10;;;;;;5035937;28;20391;-73
2023/02/02 04:00:28;;;;;;;25.30;6.50;;;8.20;91.30;;;;;;5044060;28;20412;-72
2023/02/02 04:02:54;;;;;;;26.10;6.60;;;8.30;90.80;;;;;;5051175;28;20410;-73
2023/02/02 04:05:19;;;;;;;34.85;7.20;;;8.20;90.30;;;;;;5043996;28;20482;-72
2023/02/02 04:07:45;;;;;;;29.40;7.22;;;8.20;91.10;;;;;;5044878;28;20380;-71
2023/02/02 04:10:11;;;;;;;28.85;7.40;;;8.20;90.00;;;;;;5045847;28;20749;-72
2023/02/02 04:12:36;;;;;;;33.40;7.70;;;8.30;88.00;;;;;;5044912;28;20907;-72
2023/02/02 04:15:02;;;;;;;32.00;7.00;;;8.40;86.60;;;;;;5032124;28;20402;-71
2023/02/02 04:17:27;;;;;;;25.45;7.07;;;8.40;85.20;;;;;;5032126;28;20383;-71
2023/02/02 04:19:56;;;;;;;29.90;6.87;;;8.40;85.20;;;;;;5031774;28;20387;-72
2023/02/02 04:22:23;;;;;;;29.63;6.32;;;8.40;85.00;;;;;;5031600;28;20403;-72
2023/02/02 04:24:48;;;;;;;26.67;5.88;;;8.40;81.90;;;;;;5031879;28;20444;-72
2023/02/02 04:27:14;;;;;;;34.75;6.68;;;8.40;81.60;;;;;;5031611;28;20387;-72
2023/02/02 04:29:39;;;;;;;33.70;7.53;;;8.50;81.60;;;;;;5031673;28;20383;-72
2023/02/02 04:32:05;;;;;;;27.17;6.85;;;8.50;81.40;;;;;;5031499;28;20415;-72
2023/02/02 04:34:30;;;;;;;24.80;6.72;;;8.50;81.40;;;;;;5032250;28;20415;-73
2023/02/02 04:36:56;;;;;;;32.55;6.90;;;8.50;81.00;;;;;;5031997;28;20383;-72
2023/02/02 04:39:21;;;;;;;30.88;7.30;;;8.50;80.60;;;;;;5031660;28;20772;-71
2023/02/02 04:41:47;;;;;;;28.40;7.05;;;8.50;80.50;;;;;;5031229;28;20432;-72
2023/02/02 04:44:17;;;;;;;33.33;6.90;;;8.50;80.70;;;;;;5031444;28;20383;-72
2023/02/02 04:46:43;;;;;;;30.05;7.00;;;8.50;80.80;;;;;;5031631;28;20389;-71
2023/02/02 04:49:13;;;;;;;28.13;6.77;;;8.50;79.40;;;;;;5031410;28;20398;-72
2023/02/02 04:51:39;;;;;;;29.80;6.32;;;8.50;80.20;;;;;;5031315;28;20422;-72
2023/02/02 04:54:06;;;;;;;34.03;7.32;;;8.50;79.10;;;;;;5031262;28;20395;-72
2023/02/02 04:56:31;;;;;;;26.60;6.95;;;8.50;78.90;;;;;;5031290;28;20399;-72
2023/02/02 04:58:57;;;;;;;34.97;7.47;;;8.50;79.00;;;;;;5025123;28;20471;-72
2023/02/02 05:01:23;;;;;;;37.88;7.28;;;8.50;80.30;;;;;;5004331;28;20469;-72
2023/02/02 05:03:49;;;;;;;27.50;7.00;;;8.60;78.30;;;;;;5014124;28;20404;-72
2023/02/02 05:06:16;;;;;;;28.33;6.88;;;8.60;77.90;;;;;;5032171;28;20386;-72
2023/02/02 05:08:42;;;;;;;21.83;6.25;;;8.60;78.80;;;;;;5031240;28;20469;-73
2023/02/02 05:11:10;;;;;;;22.52;6.60;;;8.60;78.60;;;;;;5016365;28;20393;-72
2023/02/02 05:13:36;;;;;;;34.35;6.50;;;8.60;78.90;;;;;;5032889;28;20483;-73
2023/02/02 05:16:02;;;;;;;36.43;5.83;;;8.60;79.30;;;;;;5013007;28;20403;-73
2023/02/02 05:18:29;;;;;;;24.90;6.60;;;8.60;79.30;;;;;;5014987;28;20421;-72
2023/02/02 05:20:54;;;;;;;25.05;6.00;;;8.60;77.90;;;;;;5031277;28;20817;-69
2023/02/02 05:23:20;;;;;;;28.43;5.87;;;8.60;78.70;;;;;;5036856;28;20418;-74
2023/02/02 05:25:55;;;;;;;25.60;6.73;;;8.60;78.70;;;;;;5038067;28;20389;-71
2023/02/02 05:28:21;;;;;;;28.00;6.70;;;8.60;78.60;;;;;;5011277;28;20509;-71
2023/02/02 05:30:47;;;;;;;31.38;6.70;;;8.50;79.20;;;;;;5011430;28;20427;-73
2023/02/02 05:33:13;;;;;;;30.10;7.32;;;8.50;78.50;;;;;;5011468;28;20420;-72
2023/02/02 05:35:39;;;;;;;26.77;6.30;;;8.60;78.30;;;;;;5011279;28;20447;-71
2023/02/02 05:38:04;;;;;;;26.40;7.17;;;8.50;78.40;;;;;;5011028;28;20393;-73
2023/02/02 05:40:30;;;;;;;26.67;6.97;;;8.50;78.20;;;;;;5011755;28;20487;-72
2023/02/02 05:42:56;;;;;;;24.73;7.10;;;8.60;78.10;;;;;;5010674;28;20471;-72
2023/02/02 05:45:22;;;;;;;24.90;6.97;;;8.60;78.20;;;;;;5010888;28;20873;-72
2023/02/02 05:47:48;;;;;;;27.02;6.80;;;8.60;77.60;;;;;;5011054;28;20444;-73
2023/02/02 05:50:13;;;;;;;24.87;6.90;;;8.60;78.90;;;;;;5010852;28;20858;-71
2023/02/02 05:52:41;;;;;;;25.98;7.50;;;8.60;78.30;;;;;;5011196;28;20389;-73
2023/02/02 05:55:07;;;;;;;29.30;7.50;;;8.60;76.50;;;;;;5011077;28;20604;-74
2023/02/02 05:57:32;;;;;;;24.70;6.47;;;8.70;75.50;;;;;;5012657;28;20479;-73
2023/02/02 05:59:58;;;;;;;29.75;7.05;;;8.60;75.50;;;;;;5011412;28;20397;-73
2023/02/02 06:02:23;;;;;;;21.08;6.70;;;8.70;76.00;;;;;;5010446;28;20465;-72
2023/02/02 06:04:49;;;;;;;24.55;7.13;;;8.70;76.20;;;;;;4993378;28;20389;-73
2023/02/02 06:07:15;;;;;;;29.45;7.03;;;8.60;76.40;;;;;;5011049;28;20380;-74
2023/02/02 06:09:40;;;;;;;31.10;8.13;;;8.70;76.50;;;;;;5011047;28;20819;-72
2023/02/02 06:12:06;;;;;;;33.80;8.05;;;8.60;75.70;;;;;;4996664;28;20480;-72
2023/02/02 06:14:32;;;;;;;35.40;7.78;;;8.70;76.40;;;;;;5014538;28;20483;-71
2023/02/02 06:16:57;;;;;;;34.65;7.97;;;8.60;76.60;;;;;;5014772;28;20460;-74
2023/02/02 06:19:23;;;;;;;25.50;7.20;;;8.60;76.50;;;;;;5014370;28;20399;-72
2023/02/02 06:21:48;;;;;;;30.60;8.73;;;8.60;77.40;;;;;;5014016;28;20388;-70
2023/02/02 06:24:14;;;;;;;32.72;8.65;;;8.60;77.60;;;;;;5014386;28;20392;-74
2023/02/02 06:26:39;;;;;;;36.95;8.38;;;8.60;77.70;;;;;;5014133;28;20441;-72
2023/02/02 06:29:05;;;;;;;34.10;8.48;;;8.60;77.00;;;;;;5014466;28;20431;-73
2023/02/02 06:31:32;;;;;;;27.25;8.00;;;8.60;77.10;;;;;;5014596;28;20870;-72
2023/02/02 06:33:58;;;;;;;31.90;8.70;;;8.60;77.40;;;;;;5014685;28;20864;-72
2023/02/02 06:36:26;;;;;;;34.20;8.60;;;8.60;78.30;;;;;;5014397;28;20396;-72
2023/02/02 06:38:53;;;;;;;28.17;8.30;;;8.60;80.00;;;;;;4997373;28;20760;-72
2023/02/02 06:41:19;;;;;;;39.53;10.25;;;8.50;80.60;;;;;;5013946;28;20472;-75
2023/02/02 06:43:49;;;;;;;23.58;8.55;;;8.50;82.20;;;;;;5014555;28;20872;-74
2023/02/02 06:46:15;;;;;;;25.08;9.70;;;8.50;83.80;;;;;;5014247;28;20483;-76
2023/02/02 06:48:41;;;;;;;31.63;10.05;;;8.40;84.70;;;;;;5015505;28;20838;-74
2023/02/02 06:51:07;;;;;;;29.80;9.83;;;8.50;86.00;;;;;;5013868;28;20480;-73
2023/02/02 06:53:34;;;;;;;31.13;9.73;;;8.50;84.80;;;;;;5015059;28;20409;-74
2023/02/02 06:56:02;;;;;;;33.15;10.75;;;8.50;84.90;;;;;;4997393;28;20776;-74
2023/02/02 06:58:29;;;;;;;26.57;9.50;;;8.40;84.60;;;;;;4998050;28;20401;-73
2023/02/02 07:00:59;;;;;;;25.52;9.95;;;8.50;84.40;;;;;;5016781;28;20388;-74
2023/02/02 07:03:24;;;;;;;30.58;10.05;;;8.50;83.00;;;;;;4998036;28;20412;-75
2023/02/02 07:05:50;;;;;;;30.02;10.90;;;8.50;83.10;;;;;;4997169;28;20385;-73
2023/02/02 07:08:16;;;;;;;36.40;11.90;;;8.50;85.30;;;;;;5013664;28;20454;-75
2023/02/02 07:10:43;;;;;;;23.30;9.43;;;8.40;85.10;;;;;;5014383;28;20388;-75
2023/02/02 07:13:09;;;;;;;25.30;10.60;;;8.50;85.00;;;;;;5013993;28;20420;-73
2023/02/02 07:15:37;;;;;;;26.42;9.85;;;8.40;85.60;;;;;;5013557;28;20388;-72
2023/02/02 07:18:03;;;;;;;27.23;9.73;;;8.50;84.50;;;;;;5013531;28;20492;-73
2023/02/02 07:20:28;;;;;;;37.83;11.30;;;8.50;85.10;;;;;;4996218;28;20547;-74
2023/02/02 07:22:54;;;;;;;36.23;10.63;;;8.40;86.30;;;;;;5013420;28;20408;-74
2023/02/02 07:25:20;;;;;;;32.83;9.93;;;8.40;86.90;;;;;;5014403;28;20438;-75
2023/02/02 07:27:48;;;;;;;34.35;10.30;;;8.40;88.50;;;;;;5013748;28;20391;-75
2023/02/02 07:30:15;;;;;;;39.07;11.00;;;8.40;88.60;;;;;;4996208;28;20385;-76
2023/02/02 07:32:46;;;;;;;39.47;11.30;;;8.40;89.50;;;;;;5013308;28;20385;-74
2023/02/02 07:35:11;;;;;;;36.22;9.50;;;8.40;87.20;;;;;;5013402;28;20395;-74
2023/02/02 07:37:37;;;;;;;29.43;9.50;;;8.40;87.90;;;;;;5012938;28;20468;-71
2023/02/02 07:40:03;;;;;;;32.88;10.25;;;8.40;87.60;;;;;;5014351;28;20443;-74
2023/02/02 07:42:28;;;;;;;30.02;10.90;;;8.40;87.90;;;;;;5012753;28;20467;-73
2023/02/02 07:44:54;;;;;;;25.87;9.60;;;8.40;88.60;;;;;;5012704;28;20380;-74
2023/02/02 07:47:21;;;;;;;34.25;10.27;;;8.40;88.90;;;;;;5011965;28;22283;-73
2023/02/02 07:49:46;;;;;;;30.23;9.85;;;8.50;88.60;;;;;;5012861;28;20734;-72
2023/02/02 07:52:12;;;;;;;30.67;10.75;;;8.50;88.00;;;;;;5012870;28;20901;-74
2023/02/02 07:54:38;;;;;;;27.83;10.30;;;8.40;89.20;;;;;;5060765;23;20454;-74
2023/02/02 07:57:03;;;;;;;26.40;10.38;;;8.40;91.30;;;;;;5071919;28;20467;-73
2023/02/02 07:59:29;;;;;;;31.65;11.07;;;8.40;91.90;;;;;;5071950;28;20383;-74
2023/02/02 08:01:55;;;;;;;32.17;10.63;;;8.40;93.40;;;;;;5071881;28;20874;-72
2023/02/02 08:04:20;;;;;;;38.75;12.35;;;8.40;93.10;;;;;;5071772;28;20920;-73
2023/02/02 08:06:46;;;;;;;31.75;11.32;;;8.40;92.80;;;;;;5072161;28;20458;-73
2023/02/02 08:09:11;;;;;;;36.15;12.25;;;8.40;93.80;;;;;;5071517;28;20399;-74
2023/02/02 08:11:37;;;;;;;32.55;12.65;;;8.40;93.80;;;;;;5071441;28;20376;-74
2023/02/02 08:14:03;;;;;;;29.50;11.80;;;8.40;93.70;;;;;;5071414;28;20893;-73
2023/02/02 08:16:31;;;;;;;37.38;12.13;;;8.40;93.90;;;;;;5071513;28;20423;-73
2023/02/02 08:18:57;;;;;;;27.70;11.88;;;8.50;93.10;;;;;;5071695;28;20478;-73
2023/02/02 08:21:23;;;;;;;31.13;12.13;;;8.40;93.90;;;;;;5071194;28;20387;-75
2023/02/02 08:23:50;;;;;;;35.30;12.73;;;8.40;94.90;;;;;;5073263;28;20399;-72
2023/02/02 08:26:23;;;;;;;33.83;12.50;;;8.40;93.90;;;;;;5071994;28;20464;-73
2023/02/02 08:28:53;;;;;;;31.95;13.07;;;8.40;95.80;;;;;;5071926;28;20376;-73
2023/02/02 08:31:22;;;;;;;36.23;12.53;;;8.40;95.70;;;;;;5071702;28;20414;-73
2023/02/02 08:33:48;;;;;;;34.30;12.40;;;8.40;95.00;;;;;;5071681;28;20395;-73
2023/02/02 08:36:16;;;;;;;41.33;13.20;;;8.40;96.50;;;;;;5072390;28;20568;-73
2023/02/02 08:38:41;;;;;;;33.88;12.20;;;8.30;96.90;;;;;;5072511;28;20466;-74
2023/02/02 08:41:12;;;;;;;27.40;11.50;;;8.30;97.30;;;;;;5071853;28;20490;-73
2023/02/02 08:43:39;;;;;;;40.45;12.93;;;8.40;96.60;;;;;;5070977;28;20427;-73
2023/02/02 08:46:05;;;;;;;32.85;11.95;;;8.30;97.30;;;;;;5072665;28;20379;-74
2023/02/02 08:48:31;;;;;;;33.13;11.63;;;8.30;98.00;;;;;;5077281;28;20517;-73
2023/02/02 08:50:58;;;;;;;32.55;12.20;;;8.40;97.70;;;;;;5083311;28;20384;-73
2023/02/02 08:53:25;;;;;;;31.10;11.73;;;8.40;98.70;;;;;;5076117;28;20389;-73
2023/02/02 08:56:01;;;;;;;27.27;10.73;;;8.40;99.30;;;;;;5079556;28;20379;-73
2023/02/02 08:58:27;;;;;;;26.80;11.00;;;8.40;98.60;;;;;;5075561;28;20505;-73
2023/02/02 09:00:53;;;;;;;28.30;10.23;;;8.40;99.90;;;;;;5076009;28;20395;-74
2023/02/02 09:03:19;;;;;;;32.60;10.50;;;8.40;98.40;;;;;;5070637;28;20919;-74
2023/02/02 09:05:44;;;;;;;31.10;11.70;;;8.40;98.40;;;;;;5071125;28;20518;-73
2023/02/02 09:08:10;;;;;;;33.60;11.03;;;8.40;99.90;;;;;;5071200;28;20457;-74
2023/02/02 09:10:36;;;;;;;28.47;10.40;;;8.40;99.90;;;;;;5070696;28;20383;-72
2023/02/02 09:13:02;;;;;;;35.97;11.40;;;8.40;99.90;;;;;;5072166;28;20391;-73
2023/02/02 09:15:29;;;;;;;29.85;10.20;;;8.40;99.90;;;;;;5070726;28;20915;-73
2023/02/02 09:17:55;;;;;;;30.40;10.70;;;8.30;99.90;;;;;;5071561;28;20740;-73
2023/02/02 09:20:20;;;;;;;26.85;10.48;;;8.40;99.90;;;;;;5070735;28;20384;-73
2023/02/02 09:22:47;;;;;;;31.02;10.80;;;8.30;99.90;;;;;;5070564;28;20465;-74
2023/02/02 09:25:12;;;;;;;31.00;12.52;;;8.30;99.90;;;;;;5070585;28;20458;-74
2023/02/02 09:27:39;;;;;;;31.45;12.32;;;8.30;99.90;;;;;;5069136;28;20486;-73
2023/02/02 09:30:06;;;;;;;24.35;10.80;;;8.30;99.90;;;;;;5070430;28;20378;-74
2023/02/02 09:32:32;;;;;;;31.48;10.70;;;8.30;99.90;;;;;;5070366;28;20384;-73
2023/02/02 09:34:59;;;;;;;30.88;11.30;;;8.40;99.90;;;;;;5070507;28;20414;-73
2023/02/02 09:37:28;;;;;;;29.48;11.52;;;8.40;99.90;;;;;;5069077;28;20904;-73
2023/02/02 09:39:53;;;;;;;40.67;12.45;;;8.40;99.90;;;;;;5070492;28;20387;-73
2023/02/02 09:42:45;;;;;;;31.00;11.97;;;8.40;99.90;;;;;;5070033;28;20407;-73
2023/02/02 09:45:24;;;;;;;41.22;12.52;;;8.40;99.90;;;;;;5068534;28;20581;-73
2023/02/02 09:47:54;;;;;;;31.90;11.80;;;8.40;99.90;;;;;;5057684;28;20486;-73
2023/02/02 09:50:37;;;;;;;28.30;10.93;;;8.50;99.90;;;;;;5074793;28;20376;-73
2023/02/02 09:53:16;;;;;;;29.55;11.73;;;8.50;99.00;;;;;;5074496;28;20422;-73
2023/02/02 09:55:48;;;;;;;25.40;11.90;;;8.40;98.90;;;;;;5074496;28;20719;-73
2023/02/02 09:58:29;;;;;;;26.45;11.13;;;8.50;98.10;;;;;;5074194;28;20404;-73
2023/02/02 10:01:16;;;;;;;31.77;11.88;;;8.50;96.90;;;;;;5074141;28;20375;-74
2023/02/02 10:04:06;;;;;;;32.13;11.90;;;8.50;98.20;;;;;;5074496;28;20402;-73
2023/02/02 10:06:34;;;;;;;27.60;11.35;;;8.50;95.90;;;;;;5074484;28;20891;-73
2023/02/02 10:09:27;;;;;;;38.88;12.32;;;8.50;95.60;;;;;;5074275;28;20483;-73
2023/02/02 10:12:18;;;;;;;33.65;12.57;;;8.50;95.40;;;;;;5074419;28;20384;-74
2023/02/02 10:14:50;;;;;;;30.60;11.90;;;8.50;95.00;;;;;;5077512;28;20375;-73
2023/02/02 10:17:34;;;;;;;31.88;12.25;;;8.60;94.60;;;;;;5081572;28;20884;-73
2023/02/02 10:20:13;;;;;;;35.80;11.60;;;8.60;93.50;;;;;;5082567;28;20383;-72
2023/02/02 10:22:40;;;;;;;35.40;12.50;;;8.60;93.20;;;;;;5076121;28;20414;-73
2023/02/02 10:25:11;;;;;;;27.52;11.43;;;8.60;93.20;;;;;;5074297;28;20736;-72
2023/02/02 10:27:38;;;;;;;27.10;11.30;;;8.70;91.80;;;;;;5075403;28;20382;-73
2023/02/02 10:30:30;;;;;;;34.17;11.20;;;8.70;91.80;;;;;;5074410;28;20384;-74
2023/02/02 10:33:11;;;;;;;26.33;10.90;;;8.70;91.40;;;;;;5074734;28;20481;-73
2023/02/02 10:36:03;;;;;;;30.10;10.43;;;8.80;90.30;;;;;;5073537;28;20385;-74
2023/02/02 10:38:41;;;;;;;32.67;11.45;;;8.80;89.10;;;;;;5073353;28;20851;-74
2023/02/02 10:41:34;;;;;;;26.50;9.90;;;8.90;88.40;;;;;;5073179;28;20383;-73
2023/02/02 10:44:23;;;;;;;37.38;10.15;;;8.90;87.20;;;;;;5073276;28;20471;-73
2023/02/02 10:46:54;;;;;;;32.05;10.30;;;9.00;86.30;;;;;;5073574;28;20442;-72
2023/02/02 10:49:26;;;;;;;28.75;10.00;;;9.10;84.30;;;;;;5073862;28;20429;-72
2023/02/02 10:52:03;;;;;;;29.10;10.67;;;9.10;83.60;;;;;;5073257;28;20406;-72
2023/02/02 10:54:38;;;;;;;31.02;11.63;;;9.10;83.70;;;;;;5073611;28;20749;-75
2023/02/02 10:57:09;;;;;;;36.70;10.02;;;9.20;82.40;;;;;;5073250;28;20423;-73
2023/02/02 10:59:43;;;;;;;28.90;8.98;;;9.20;82.50;;;;;;5073206;28;20413;-73
2023/02/02 11:02:11;;;;;;;30.80;9.60;;;9.20;81.40;;;;;;5072898;28;20426;-73
2023/02/02 11:07:21;;;;;;;35.63;9.47;;;9.20;79.90;;;;;;5073459;28;20756;-72
2023/02/02 11:09:47;;;;;;;24.92;9.00;;;9.20;79.20;;;;;;5073382;28;20464;-74
2023/02/02 11:12:24;;;;;;;35.65;9.60;;;9.20;80.10;;;;;;5072585;28;20384;-73
2023/02/02 11:15:04;;;;;;;25.52;8.20;;;9.20;79.40;;;;;;5073044;28;20382;-73
2023/02/02 11:17:31;;;;;;;22.57;8.27;;;9.20;78.90;;;;;;5072810;28;20790;-73
2023/02/02 11:19:57;;;;;;;24.33;8.13;;;9.10;79.40;;;;;;5072309;28;20431;-73
2023/02/02 11:22:37;;;;;;;26.80;8.30;;;9.10;79.00;;;;;;5072982;28;20400;-73
2023/02/02 11:25:05;;;;;;;24.05;7.75;;;9.10;79.80;;;;;;5072484;28;20450;-74
2023/02/02 11:27:39;;;;;;;28.15;7.22;;;9.10;80.20;;;;;;5072255;28;20463;-74
2023/02/02 11:30:22;;;;;;;22.25;8.27;;;9.10;78.70;;;;;;5072482;28;20414;-74
2023/02/02 11:32:49;;;;;;;24.20;8.10;;;9.10;79.60;;;;;;5072589;28;20380;-74
2023/02/02 11:35:23;;;;;;;22.67;7.55;;;9.10;79.80;;;;;;5072297;28;20765;-73
2023/02/02 11:37:52;;;;;;;29.67;7.40;;;9.10;79.30;;;;;;5072869;28;20448;-73
2023/02/02 11:40:29;;;;;;;30.15;8.25;;;9.10;80.80;;;;;;5072934;28;20395;-74
2023/02/02 11:42:58;;;;;;;25.27;8.03;;;9.10;80.40;;;;;;5085330;28;20470;-73
2023/02/02 11:45:40;;;;;;;27.13;9.10;;;9.10;80.70;;;;;;5079097;28;20384;-73
2023/02/02 11:48:16;;;;;;;26.05;7.60;;;9.20;79.90;;;;;;5084062;28;20364;-73
2023/02/02 11:50:50;;;;;;;22.13;7.80;;;9.20;78.20;;;;;;5086013;28;20670;-73
2023/02/02 11:53:27;;;;;;;26.27;7.88;;;9.20;78.70;;;;;;5073018;28;20434;-73
2023/02/02 11:55:54;;;;;;;32.85;7.57;;;9.30;78.70;;;;;;5071478;28;20404;-75
2023/02/02 11:58:29;;;;;;;26.30;7.90;;;9.30;78.10;;;;;;5070889;28;20394;-74
2023/02/02 12:00:58;;;;;;;20.48;7.45;;;9.30;76.90;;;;;;5071011;28;20379;-73
2023/02/02 12:03:34;;;;;;;21.77;7.20;;;9.40;76.90;;;;;;5070953;28;20415;-73
2023/02/02 12:06:15;;;;;;;27.83;8.30;;;9.40;74.80;;;;;;5070982;28;20383;-73
2023/02/02 12:08:41;;;;;;;18.77;7.00;;;9.40;75.60;;;;;;5070603;28;20433;-73
2023/02/02 12:11:16;;;;;;;26.40;7.93;;;9.50;75.30;;;;;;5070808;28;20372;-74
2023/02/02 12:13:58;;;;;;;19.38;7.40;;;9.50;74.70;;;;;;5072032;28;20391;-73
2023/02/02 12:16:35;;;;;;;20.03;6.70;;;9.60;73.30;;;;;;5070953;28;20433;-73
2023/02/02 12:19:13;;;;;;;22.10;7.40;;;9.60;71.00;;;;;;5071006;28;20399;-74
2023/02/02 12:22:01;;;;;;;19.85;6.60;;;9.60;70.70;;;;;;5070844;28;20483;-73
2023/02/02 12:24:38;;;;;;;19.88;7.00;;;9.50;71.50;;;;;;5071293;28;20487;-73
2023/02/02 12:27:16;;;;;;;27.75;7.38;;;9.50;71.30;;;;;;5069828;28;20467;-73
2023/02/02 12:30:02;;;;;;;22.98;7.35;;;9.50;70.80;;;;;;5073090;28;20380;-73
2023/02/02 12:33:04;;;;;;;21.00;6.80;;;9.50;71.20;;;;;;5072049;28;20380;-74
2023/02/02 12:35:47;;;;;;;26.35;7.20;;;9.50;70.80;;;;;;5071241;28;20768;-74
2023/02/02 12:38:28;;;;;;;27.85;7.53;;;9.50;70.40;;;;;;5070978;28;20376;-74
2023/02/02 12:41:24;;;;;;;16.90;6.50;;;9.50;71.10;;;;;;5071021;28;20903;-73
2023/02/02 12:44:05;;;;;;;17.83;6.75;;;9.50;70.30;;;;;;5071177;28;20407;-73
2023/02/02 12:46:47;;;;;;;24.30;6.90;;;9.50;67.80;;;;;;5069307;28;20387;-73
2023/02/02 12:49:42;;;;;;;18.63;7.13;;;9.50;68.50;;;;;;5071425;28;20428;-74
2023/02/02 12:52:27;;;;;;;17.65;6.68;;;9.60;68.20;;;;;;5064526;28;20384;-73
2023/02/02 12:55:03;;;;;;;21.30;6.40;;;9.60;67.20;;;;;;5008841;28;1755531;-74
2023/02/02 12:57:47;;;;;;;14.65;6.30;;;9.60;68.00;;;;;;5070857;28;20394;-74
2023/02/02 13:00:36;;;;;;;23.77;6.95;;;9.60;67.50;;;;;;5071123;28;20395;-74
2023/02/02 13:03:05;;;;;;;18.95;7.05;;;9.60;69.00;;;;;;5070662;28;20476;-74
2023/02/02 13:05:46;;;;;;;21.25;7.18;;;9.60;69.90;;;;;;5069826;28;20384;-75
2023/02/02 13:08:21;;;;;;;20.30;6.78;;;9.70;67.10;;;;;;5070857;28;20367;-74
2023/02/02 13:10:51;;;;;;;24.40;6.70;;;9.70;67.10;;;;;;5070710;28;20554;-74